Alexander, North Dakota
Current Conditions -  °F | °C
As of 10:52 PM on Sunday 19 Oct 2014 (Local Time) from KISN Reporting Station
Clear Clear  
Wind Chill: 39°   Ceiling: Unl
Heat Index: 39°   Visibility: 10mi
Dew Point: 34°   Wind: 0mph
Humidity: 82%   Direction: NA
Pressure: 29.99"   Gusts: NA
Location:  47.84°N, 103.64°W
Report Text: KISN 200352Z AUTO 00000KT 10SM CLR 04/01 A2999 RMK AO2 SLP166 T00390011
Loading
Personal Weather Stations






























Interactive Weather Map
Tropical Storm Tracking
New forecast layout! Learn more

10-Day Weather Forecast

Advertisements
Track Severe Weather on mobile